createdAt,value
2022-09-18T00:00:25.896Z,44
2022-09-18T00:01:23.707Z,44
2022-09-18T00:02:37.880Z,43
2022-09-18T00:03:41.954Z,43
2022-09-18T00:04:32.089Z,43
2022-09-18T00:05:30.904Z,43
2022-09-18T00:06:36.296Z,43
2022-09-18T00:07:34.302Z,43
2022-09-18T00:08:21.863Z,43
2022-09-18T00:09:28.353Z,43
2022-09-18T00:10:28.278Z,44
2022-09-18T00:11:25.510Z,44
2022-09-18T00:12:19.833Z,44
2022-09-18T00:13:21.612Z,44
2022-09-18T00:14:29.245Z,44
2022-09-18T00:15:25.245Z,44
2022-09-18T00:16:31.448Z,44
2022-09-18T00:17:28.533Z,44
2022-09-18T00:18:25.976Z,44
2022-09-18T00:19:19.940Z,43
2022-09-18T00:20:24.810Z,43
2022-09-18T00:21:28.146Z,43
2022-09-18T00:22:24.893Z,43
2022-09-18T00:23:22.672Z,43
2022-09-18T00:24:19.799Z,43
2022-09-18T00:25:25.858Z,43
2022-09-18T00:26:23.497Z,43
2022-09-18T00:27:33.104Z,43
2022-09-18T00:28:27.162Z,44
2022-09-18T00:29:22.446Z,44
2022-09-18T00:30:21.373Z,44
2022-09-18T00:31:22.750Z,44
2022-09-18T00:32:27.372Z,44
2022-09-18T00:33:20.003Z,44
2022-09-18T00:34:30.729Z,44
2022-09-18T00:35:27.160Z,43
2022-09-18T00:36:22.251Z,43
2022-09-18T00:37:28.826Z,43
2022-09-18T00:38:24.057Z,43
2022-09-18T00:39:23.309Z,43
2022-09-18T00:40:22.758Z,43
2022-09-18T00:41:29.739Z,43
2022-09-18T00:42:23.099Z,43
2022-09-18T00:43:22.697Z,43
2022-09-18T00:44:34.824Z,43
2022-09-18T00:45:22.517Z,43
2022-09-18T00:46:19.784Z,43
2022-09-18T00:47:20.530Z,43
2022-09-18T00:48:29.595Z,43
2022-09-18T00:49:25.848Z,43
2022-09-18T00:50:24.229Z,43
2022-09-18T00:51:24.226Z,43
2022-09-18T00:52:27.671Z,43
2022-09-18T00:53:24.084Z,43
2022-09-18T00:54:22.946Z,43
2022-09-18T00:55:30.730Z,43
2022-09-18T00:56:26.775Z,43
2022-09-18T00:57:22.269Z,43
2022-09-18T00:58:31.619Z,43
2022-09-18T00:59:32.297Z,43
2022-09-18T01:00:33.376Z,43
2022-09-18T01:01:32.184Z,43
2022-09-18T01:02:38.646Z,43
2022-09-18T01:03:39.165Z,43
2022-09-18T02:09:26.748Z,44
2022-09-18T02:10:28.057Z,44
2022-09-18T02:11:20.582Z,43
2022-09-18T02:12:32.775Z,43
2022-09-18T02:13:52.043Z,43
2022-09-18T02:14:22.909Z,43
2022-09-18T03:44:32.988Z,43
2022-09-18T03:45:44.617Z,43
2022-09-18T03:46:37.313Z,42
2022-09-18T03:48:02.511Z,42
2022-09-18T03:48:27.794Z,42
2022-09-18T03:49:25.501Z,42
2022-09-18T03:50:26.301Z,42
2022-09-18T03:51:52.948Z,41
2022-09-18T03:52:26.739Z,41
2022-09-18T03:53:42.195Z,41
2022-09-18T03:54:29.756Z,41
2022-09-18T03:55:28.512Z,41
2022-09-18T03:56:23.794Z,41
2022-09-18T03:57:36.789Z,42
2022-09-18T03:58:28.006Z,42
2022-09-18T03:59:32.271Z,42
2022-09-18T04:00:39.232Z,41
2022-09-18T04:01:31.263Z,41
2022-09-18T04:02:25.796Z,41
2022-09-18T04:03:27.059Z,41
2022-09-18T04:04:32.287Z,41
2022-09-18T04:05:31.476Z,41
2022-09-18T04:06:26.375Z,41
2022-09-18T04:07:36.015Z,41
2022-09-18T04:08:27.087Z,41
2022-09-18T04:09:25.394Z,41
2022-09-18T04:10:23.919Z,41
2022-09-18T04:11:25.384Z,41
2022-09-18T04:12:28.155Z,41
2022-09-18T04:13:22.500Z,41
2022-09-18T04:14:32.927Z,41
2022-09-18T04:15:27.619Z,41
2022-09-18T04:16:28.258Z,41
2022-09-18T04:17:26.703Z,41
2022-09-18T04:18:24.658Z,41
2022-09-18T04:19:22.726Z,41
2022-09-18T04:20:23.711Z,41
2022-09-18T04:21:33.279Z,41
2022-09-18T04:22:45.145Z,41
2022-09-18T04:23:25.426Z,41
2022-09-18T04:24:19.825Z,41
2022-09-18T04:25:32.007Z,41
2022-09-18T04:26:24.271Z,41
2022-09-18T04:27:23.055Z,41
2022-09-18T04:28:33.921Z,41
2022-09-18T04:29:27.809Z,41
2022-09-18T04:30:23.749Z,41
2022-09-18T04:31:20.278Z,41
2022-09-18T04:32:23.368Z,41
2022-09-18T04:33:25.660Z,41
2022-09-18T04:34:21.821Z,41
2022-09-18T04:35:36.874Z,41
2022-09-18T04:36:36.695Z,41
2022-09-18T04:37:20.586Z,41
2022-09-18T04:38:20.003Z,41
2022-09-18T04:39:32.436Z,41
2022-09-18T04:40:24.133Z,41
2022-09-18T04:41:24.209Z,41
2022-09-18T04:42:34.363Z,41
2022-09-18T04:43:28.876Z,41
2022-09-18T04:44:40.834Z,41
2022-09-18T04:45:20.880Z,41
2022-09-18T04:46:33.191Z,41
2022-09-18T04:47:29.573Z,41
2022-09-18T04:48:22.228Z,41
2022-09-18T04:49:31.999Z,41
2022-09-18T04:50:29.442Z,41
2022-09-18T04:51:29.673Z,41
2022-09-18T04:52:19.704Z,41
2022-09-18T04:53:30.220Z,41
2022-09-18T04:54:28.577Z,40
2022-09-18T04:55:25.520Z,40
2022-09-18T04:56:24.649Z,40
2022-09-18T04:57:29.743Z,40
2022-09-18T04:58:24.378Z,41
2022-09-18T04:59:20.883Z,41
2022-09-18T05:00:31.006Z,40
2022-09-18T05:01:30.156Z,40
2022-09-18T05:02:25.285Z,40
2022-09-18T05:03:31.644Z,40
2022-09-18T05:04:20.710Z,40
2022-09-18T05:05:27.773Z,41
2022-09-18T05:06:35.317Z,41
2022-09-18T05:07:32.603Z,41
2022-09-18T05:08:29.197Z,41
2022-09-18T05:09:25.789Z,41
2022-09-18T05:10:24.289Z,41
2022-09-18T05:11:26.514Z,40
2022-09-18T05:12:23.944Z,40
2022-09-18T05:13:24.809Z,40
2022-09-18T05:14:30.866Z,40
2022-09-18T05:15:20.717Z,40
2022-09-18T05:16:24.992Z,40
2022-09-18T05:17:27.690Z,40
2022-09-18T05:18:28.917Z,40
2022-09-18T05:19:25.579Z,40
2022-09-18T05:20:25.893Z,40
2022-09-18T05:21:28.178Z,40
2022-09-18T05:22:25.890Z,40
2022-09-18T05:23:23.590Z,41
2022-09-18T05:24:23.656Z,41
2022-09-18T05:25:24.141Z,41
2022-09-18T05:26:25.883Z,41
2022-09-18T05:27:26.106Z,40
2022-09-18T05:28:30.080Z,40
2022-09-18T05:29:30.372Z,40
2022-09-18T05:30:24.183Z,40
2022-09-18T05:31:28.206Z,40
2022-09-18T05:32:24.041Z,40
2022-09-18T05:33:22.012Z,40
2022-09-18T05:34:20.126Z,40
2022-09-18T05:35:30.218Z,40
2022-09-18T05:36:28.293Z,40
2022-09-18T05:37:21.828Z,40
2022-09-18T05:38:28.593Z,41
2022-09-18T05:39:31.459Z,41
2022-09-18T05:40:29.418Z,41
2022-09-18T05:41:19.887Z,41
2022-09-18T05:42:28.599Z,41
2022-09-18T05:43:19.486Z,41
2022-09-18T05:44:24.089Z,40
2022-09-18T05:45:31.974Z,40
2022-09-18T05:46:30.799Z,40
2022-09-18T05:47:23.680Z,40
2022-09-18T05:48:22.635Z,40
2022-09-18T05:49:27.472Z,40
2022-09-18T05:50:26.485Z,40
2022-09-18T05:51:21.617Z,40
2022-09-18T05:52:36.548Z,40
2022-09-18T05:53:23.166Z,40
2022-09-18T05:54:24.892Z,40
2022-09-18T05:55:19.624Z,40
2022-09-18T05:56:31.793Z,40
2022-09-18T05:57:26.160Z,40
2022-09-18T05:58:23.610Z,40
2022-09-18T05:59:40.963Z,40
2022-09-18T06:00:28.344Z,40
2022-09-18T06:01:28.926Z,40
2022-09-18T06:02:22.708Z,40
2022-09-18T06:03:22.958Z,40
2022-09-18T06:04:41.451Z,40
2022-09-18T06:05:22.278Z,40
2022-09-18T06:06:26.617Z,40
2022-09-18T06:07:29.298Z,40
2022-09-18T06:08:24.140Z,40
2022-09-18T06:09:22.420Z,40
2022-09-18T06:10:26.197Z,40
2022-09-18T06:11:21.649Z,40
2022-09-18T06:12:23.130Z,40
2022-09-18T06:13:35.564Z,40
2022-09-18T06:14:30.761Z,40
2022-09-18T06:15:24.306Z,40
2022-09-18T06:16:20.577Z,40
2022-09-18T06:17:25.140Z,40
2022-09-18T06:18:25.927Z,40
2022-09-18T06:19:22.328Z,40
2022-09-18T06:20:22.144Z,40
2022-09-18T06:21:28.021Z,40
2022-09-18T06:22:24.006Z,40
2022-09-18T06:23:23.661Z,40
2022-09-18T06:24:31.622Z,40
2022-09-18T06:25:27.454Z,40
2022-09-18T06:26:23.971Z,40
2022-09-18T06:27:27.715Z,40
2022-09-18T06:28:20.615Z,39
2022-09-18T06:29:25.705Z,40
2022-09-18T06:30:20.538Z,40
2022-09-18T06:31:31.023Z,40
2022-09-18T06:32:26.881Z,40
2022-09-18T06:33:25.408Z,40
2022-09-18T06:34:27.052Z,40
2022-09-18T06:35:21.700Z,40
2022-09-18T06:36:26.397Z,40
2022-09-18T06:37:21.141Z,40
2022-09-18T06:38:31.009Z,40
2022-09-18T06:39:25.773Z,40
2022-09-18T06:40:25.959Z,40
2022-09-18T06:41:21.704Z,40
2022-09-18T06:42:31.673Z,40
2022-09-18T06:43:24.670Z,40
2022-09-18T06:44:23.194Z,40
2022-09-18T06:45:27.118Z,40
2022-09-18T06:46:28.906Z,40
2022-09-18T06:47:25.101Z,40
2022-09-18T06:48:26.255Z,40
2022-09-18T06:49:30.909Z,40
2022-09-18T06:50:26.435Z,40
2022-09-18T06:51:19.869Z,40
2022-09-18T06:52:33.458Z,40
2022-09-18T06:53:27.312Z,40
2022-09-18T06:54:27.894Z,40
2022-09-18T06:55:32.318Z,41
2022-09-18T06:56:19.342Z,41
2022-09-18T06:57:30.360Z,40
2022-09-18T06:58:22.795Z,40
2022-09-18T06:59:32.090Z,40
2022-09-18T07:00:26.098Z,40
2022-09-18T07:01:23.870Z,40
2022-09-18T07:02:25.936Z,40
2022-09-18T07:03:28.116Z,40
2022-09-18T07:04:24.397Z,40
2022-09-18T07:05:21.138Z,40
2022-09-18T07:06:33.265Z,39
2022-09-18T07:07:26.059Z,40
2022-09-18T07:08:22.137Z,40
2022-09-18T07:09:34.380Z,40
2022-09-18T07:10:30.714Z,40
2022-09-18T07:11:24.158Z,39
2022-09-18T07:12:23.707Z,39
2022-09-18T07:13:23.336Z,39
2022-09-18T07:14:26.873Z,39
2022-09-18T07:15:26.959Z,39
2022-09-18T07:16:24.842Z,39
2022-09-18T07:17:31.670Z,39
2022-09-18T07:18:28.128Z,39
2022-09-18T07:19:21.838Z,39
2022-09-18T07:20:27.509Z,39
2022-09-18T07:21:26.271Z,39
2022-09-18T07:22:22.148Z,39
2022-09-18T07:23:25.913Z,39
2022-09-18T07:24:30.025Z,39
2022-09-18T07:25:24.084Z,39
2022-09-18T07:26:23.725Z,39
2022-09-18T07:27:20.886Z,39
2022-09-18T07:28:24.635Z,39
2022-09-18T07:29:25.982Z,39
2022-09-18T07:30:23.462Z,39
2022-09-18T07:31:30.736Z,39
2022-09-18T07:32:25.958Z,39
2022-09-18T07:33:21.631Z,39
2022-09-18T07:34:21.483Z,39
2022-09-18T07:35:29.752Z,39
2022-09-18T07:36:24.506Z,39
2022-09-18T07:37:34.500Z,39
2022-09-18T07:38:30.313Z,39
2022-09-18T07:39:28.285Z,39
2022-09-18T07:40:21.015Z,39
2022-09-18T07:41:20.726Z,39
2022-09-18T07:42:25.879Z,39
2022-09-18T07:43:23.937Z,39
2022-09-18T07:44:33.882Z,40
2022-09-18T07:45:20.990Z,40
2022-09-18T07:46:24.129Z,40
2022-09-18T07:47:22.648Z,40
2022-09-18T07:48:30.228Z,40
2022-09-18T07:49:25.543Z,40
2022-09-18T07:50:21.869Z,40
2022-09-18T07:51:26.386Z,40
2022-09-18T07:52:23.993Z,40
2022-09-18T07:53:26.627Z,40
2022-09-18T07:54:23.900Z,40
2022-09-18T07:55:49.614Z,40
2022-09-18T07:56:32.361Z,40
2022-09-18T07:57:23.072Z,40
2022-09-18T07:58:24.483Z,40
2022-09-18T07:59:28.171Z,40
2022-09-18T08:00:23.923Z,40
2022-09-18T08:01:21.308Z,40
2022-09-18T08:02:30.377Z,40
2022-09-18T08:03:23.598Z,40
2022-09-18T08:04:23.589Z,40
2022-09-18T08:05:32.490Z,40
2022-09-18T08:06:22.363Z,40
2022-09-18T08:07:24.998Z,40
2022-09-18T08:08:20.199Z,40
2022-09-18T08:09:32.204Z,40
2022-09-18T08:10:26.248Z,39
2022-09-18T08:11:25.161Z,40
2022-09-18T08:12:22.485Z,39
2022-09-18T08:13:28.878Z,39
2022-09-18T08:14:19.993Z,40
2022-09-18T08:15:23.897Z,40
2022-09-18T08:16:31.480Z,40
2022-09-18T08:17:31.328Z,40
2022-09-18T08:18:23.800Z,40
2022-09-18T08:19:24.644Z,40
2022-09-18T08:20:30.713Z,40
2022-09-18T08:21:24.257Z,40
2022-09-18T08:22:20.252Z,40
2022-09-18T08:23:34.375Z,40
2022-09-18T08:24:29.476Z,40
2022-09-18T08:25:25.682Z,40
2022-09-18T08:26:25.319Z,40
2022-09-18T08:27:23.516Z,40
2022-09-18T08:28:28.801Z,40
2022-09-18T08:29:22.283Z,40
2022-09-18T08:30:31.733Z,40
2022-09-18T08:31:30.571Z,39
2022-09-18T08:32:22.092Z,39
2022-09-18T08:33:34.241Z,40
2022-09-18T08:34:30.326Z,40
2022-09-18T08:35:23.974Z,40
2022-09-18T08:36:20.107Z,40
2022-09-18T08:37:29.963Z,40
2022-09-18T08:38:27.847Z,40
2022-09-18T08:39:24.393Z,40
2022-09-18T08:40:31.864Z,40
2022-09-18T08:41:32.026Z,40
2022-09-18T08:42:26.186Z,40
2022-09-18T08:43:20.289Z,40
2022-09-18T08:44:26.050Z,41
2022-09-18T08:45:26.122Z,40
2022-09-18T08:46:24.437Z,40
2022-09-18T08:47:35.560Z,40
2022-09-18T08:48:29.775Z,40
2022-09-18T08:49:29.682Z,41
2022-09-18T08:50:24.132Z,41
2022-09-18T08:51:28.001Z,41
2022-09-18T08:52:29.788Z,41
2022-09-18T08:53:22.054Z,41
2022-09-18T08:54:21.236Z,41
2022-09-18T08:55:29.145Z,41
2022-09-18T08:56:27.629Z,41
2022-09-18T08:57:22.991Z,41
2022-09-18T08:58:30.303Z,41
2022-09-18T08:59:27.249Z,41
2022-09-18T09:00:21.930Z,41
2022-09-18T09:01:21.012Z,41
2022-09-18T09:02:30.941Z,41
2022-09-18T09:03:29.544Z,41
2022-09-18T09:04:23.055Z,41
2022-09-18T09:05:21.979Z,41
2022-09-18T09:06:29.634Z,41
2022-09-18T09:07:25.566Z,41
2022-09-18T09:08:25.421Z,41
2022-09-18T09:09:30.658Z,41
2022-09-18T09:10:24.196Z,41
2022-09-18T09:11:24.036Z,41
2022-09-18T09:12:25.338Z,41
2022-09-18T09:13:28.623Z,41
2022-09-18T09:14:52.848Z,41
2022-09-18T09:15:26.595Z,41
2022-09-18T09:16:31.630Z,41
2022-09-18T09:17:27.024Z,41
2022-09-18T09:18:21.864Z,41
2022-09-18T09:19:23.774Z,40
2022-09-18T09:20:21.467Z,40
2022-09-18T09:21:23.379Z,40
2022-09-18T09:22:22.940Z,41
2022-09-18T09:23:28.759Z,40
2022-09-18T09:24:25.036Z,40
2022-09-18T09:25:24.267Z,40
2022-09-18T09:26:23.743Z,40
2022-09-18T09:27:26.058Z,40
2022-09-18T09:28:28.987Z,40
2022-09-18T09:29:27.257Z,40
2022-09-18T09:30:30.294Z,40
2022-09-18T09:31:27.601Z,40
2022-09-18T09:32:23.509Z,40
2022-09-18T09:33:30.126Z,40
2022-09-18T09:34:30.314Z,40
2022-09-18T09:35:22.632Z,40
2022-09-18T09:36:31.831Z,40
2022-09-18T09:37:24.337Z,40
2022-09-18T09:38:26.680Z,40
2022-09-18T09:39:22.585Z,40
2022-09-18T09:40:41.546Z,40
2022-09-18T09:41:27.428Z,40
2022-09-18T09:42:25.019Z,40
2022-09-18T09:43:36.000Z,40
2022-09-18T09:44:30.523Z,40
2022-09-18T09:45:20.304Z,40
2022-09-18T09:46:21.614Z,39
2022-09-18T09:47:30.158Z,39
2022-09-18T09:48:20.899Z,39
2022-09-18T09:49:22.157Z,39
2022-09-18T09:50:23.528Z,39
2022-09-18T09:51:29.599Z,39
2022-09-18T09:52:24.484Z,39
2022-09-18T09:53:25.293Z,39
2022-09-18T09:54:31.359Z,39
2022-09-18T09:55:24.217Z,39
2022-09-18T09:56:24.389Z,39
2022-09-18T09:57:31.535Z,39
2022-09-18T09:58:20.443Z,39
2022-09-18T09:59:30.113Z,39
2022-09-18T10:00:21.719Z,39
2022-09-18T10:01:32.426Z,39
2022-09-18T10:02:30.049Z,38
2022-09-18T10:03:22.489Z,38
2022-09-18T10:04:34.077Z,38
2022-09-18T10:05:24.214Z,38
2022-09-18T10:06:23.825Z,38
2022-09-18T10:07:25.683Z,38
2022-09-18T10:08:30.159Z,38
2022-09-18T10:09:25.813Z,38
2022-09-18T10:10:21.790Z,38
2022-09-18T10:11:32.212Z,38
2022-09-18T10:12:29.881Z,38
2022-09-18T10:13:27.449Z,38
2022-09-18T10:14:31.189Z,38
2022-09-18T10:15:25.455Z,38
2022-09-18T10:16:27.354Z,38
2022-09-18T10:17:22.827Z,38
2022-09-18T10:18:32.862Z,38
2022-09-18T10:19:34.866Z,38
2022-09-18T10:20:28.307Z,38
2022-09-18T10:21:20.244Z,38
2022-09-18T10:22:28.461Z,38
2022-09-18T10:23:20.406Z,38
2022-09-18T10:24:21.863Z,38
2022-09-18T10:25:37.708Z,38
2022-09-18T10:26:30.705Z,38
2022-09-18T10:27:25.965Z,38
2022-09-18T10:28:23.021Z,38
2022-09-18T10:29:35.536Z,38
2022-09-18T10:30:29.092Z,38
2022-09-18T10:31:25.000Z,38
2022-09-18T10:32:33.614Z,38
2022-09-18T10:33:29.294Z,38
2022-09-18T10:34:24.287Z,38
2022-09-18T10:35:25.349Z,38
2022-09-18T10:36:35.717Z,38
2022-09-18T10:37:31.335Z,38
2022-09-18T10:38:23.713Z,38
2022-09-18T10:39:33.774Z,38
2022-09-18T10:40:28.299Z,38
2022-09-18T10:41:42.363Z,38
2022-09-18T10:42:23.997Z,38
2022-09-18T10:43:26.329Z,38
2022-09-18T10:44:26.118Z,38
2022-09-18T10:45:26.399Z,38
2022-09-18T10:46:32.991Z,38
2022-09-18T10:47:30.334Z,38
2022-09-18T10:48:24.992Z,38
2022-09-18T10:49:20.542Z,38
2022-09-18T10:50:34.423Z,38
2022-09-18T10:51:20.267Z,37
2022-09-18T10:52:22.223Z,37
2022-09-18T10:53:26.762Z,37
2022-09-18T10:54:28.090Z,37
2022-09-18T10:55:28.054Z,37
2022-09-18T10:56:29.061Z,37
2022-09-18T10:57:32.303Z,37
2022-09-18T10:58:28.210Z,37
2022-09-18T10:59:22.176Z,37
2022-09-18T11:00:26.707Z,37
2022-09-18T11:01:23.359Z,37
2022-09-18T11:02:24.739Z,37
2022-09-18T11:03:20.185Z,37
2022-09-18T11:04:30.927Z,37
2022-09-18T11:05:28.652Z,37
2022-09-18T11:06:24.370Z,37
2022-09-18T11:07:27.141Z,37
2022-09-18T11:08:23.775Z,37
2022-09-18T11:09:24.046Z,37
2022-09-18T11:10:31.582Z,37
2022-09-18T11:11:21.920Z,37
2022-09-18T11:12:26.016Z,37
2022-09-18T11:13:24.041Z,37
2022-09-18T11:14:39.277Z,37
2022-09-18T11:15:31.460Z,37
2022-09-18T11:16:23.347Z,37
2022-09-18T11:17:20.079Z,37
2022-09-18T11:18:26.971Z,37
2022-09-18T11:19:28.575Z,37
2022-09-18T11:20:22.520Z,37
2022-09-18T11:21:24.977Z,37
2022-09-18T11:22:24.064Z,37
2022-09-18T11:23:25.970Z,37
2022-09-18T11:24:23.067Z,37
2022-09-18T11:25:30.237Z,37
2022-09-18T11:26:29.837Z,37
2022-09-18T11:27:22.419Z,37
2022-09-18T11:28:39.634Z,37
2022-09-18T11:29:27.241Z,37
2022-09-18T11:30:26.511Z,37
2022-09-18T11:31:22.304Z,37
2022-09-18T11:32:31.256Z,37
2022-09-18T11:33:30.606Z,37
2022-09-18T11:34:23.787Z,37
2022-09-18T11:35:31.989Z,37
2022-09-18T11:36:29.683Z,37
2022-09-18T11:37:24.482Z,37
2022-09-18T11:38:20.228Z,37
2022-09-18T11:39:24.444Z,37
2022-09-18T11:40:25.040Z,37
2022-09-18T11:41:23.332Z,37
2022-09-18T11:42:39.478Z,37
2022-09-18T11:43:30.081Z,37
2022-09-18T11:44:22.580Z,37
2022-09-18T11:45:20.538Z,37
2022-09-18T11:46:28.754Z,37
2022-09-18T11:47:26.202Z,36
2022-09-18T11:48:22.440Z,37
2022-09-18T11:49:35.686Z,39
2022-09-18T11:50:33.028Z,39
2022-09-18T11:51:39.233Z,40
2022-09-18T11:52:22.656Z,43
2022-09-18T11:53:32.403Z,44
2022-09-18T11:54:23.415Z,43
2022-09-18T11:55:22.744Z,45
2022-09-18T11:56:33.391Z,45
2022-09-18T11:57:28.577Z,44
2022-09-18T11:58:24.407Z,43
2022-09-18T11:59:25.245Z,43
2022-09-18T12:00:37.376Z,43
2022-09-18T12:01:26.319Z,42
2022-09-18T12:02:24.496Z,43
2022-09-18T12:03:32.976Z,43
2022-09-18T12:04:31.563Z,43
2022-09-18T12:05:26.418Z,42
2022-09-18T12:06:20.207Z,41
2022-09-18T12:07:35.557Z,41
2022-09-18T12:08:24.721Z,40
2022-09-18T12:09:20.735Z,40
2022-09-18T12:10:31.065Z,39
2022-09-18T12:11:28.793Z,39
2022-09-18T12:12:22.660Z,39
2022-09-18T12:13:18.732Z,41
2022-09-18T12:14:26.030Z,41
2022-09-18T12:15:27.377Z,36
2022-09-18T12:16:21.728Z,35
2022-09-18T12:17:34.612Z,35
2022-09-18T12:18:27.583Z,34
2022-09-18T12:19:25.303Z,36
2022-09-18T12:20:18.658Z,34
2022-09-18T13:07:23.135Z,23
2022-09-18T13:08:27.714Z,24
2022-09-18T13:09:28.200Z,26
2022-09-18T13:10:19.301Z,25
2022-09-18T13:11:30.547Z,25
2022-09-18T13:12:22.985Z,25
2022-09-18T13:13:28.056Z,24
2022-09-18T13:14:31.048Z,26
2022-09-18T13:15:25.526Z,24
2022-09-18T13:16:20.435Z,23
2022-09-18T13:17:28.723Z,25
2022-09-18T13:18:22.112Z,25
2022-09-18T13:19:22.204Z,25
2022-09-18T13:20:34.108Z,24
2022-09-18T13:21:23.787Z,24
2022-09-18T13:22:44.423Z,25
2022-09-18T13:23:35.468Z,25
2022-09-18T13:24:32.216Z,24
2022-09-18T13:25:21.336Z,22
2022-09-18T13:26:38.448Z,21
2022-09-18T13:27:33.562Z,22
2022-09-18T13:28:29.882Z,21
2022-09-18T13:29:26.889Z,22
2022-09-18T13:30:32.662Z,23
2022-09-18T13:31:36.974Z,22
2022-09-18T13:32:21.737Z,21
2022-09-18T13:33:22.063Z,23
2022-09-18T13:34:44.247Z,21
2022-09-18T13:35:22.668Z,22
2022-09-18T13:36:24.258Z,22
2022-09-18T13:37:20.110Z,22
2022-09-18T13:38:34.337Z,23
2022-09-18T13:39:50.601Z,23
2022-09-18T13:40:22.768Z,23
2022-09-18T13:41:28.816Z,23
2022-09-18T13:42:28.381Z,24
2022-09-18T13:43:20.990Z,21
2022-09-18T13:44:20.052Z,22
2022-09-18T13:45:30.234Z,23
2022-09-18T13:46:24.947Z,23
2022-09-18T13:47:23.951Z,21
2022-09-18T13:48:21.710Z,21
2022-09-18T13:49:28.391Z,21
2022-09-18T13:50:24.674Z,21
2022-09-18T13:51:21.630Z,22
2022-09-18T13:52:26.812Z,22
2022-09-18T13:53:27.781Z,18
2022-09-18T13:54:23.777Z,21
2022-09-18T13:55:25.459Z,23
2022-09-18T13:56:40.961Z,23
2022-09-18T13:57:26.045Z,21
2022-09-18T13:58:20.288Z,23
2022-09-18T13:59:33.309Z,21
2022-09-18T14:00:23.423Z,23
2022-09-18T14:01:21.868Z,21
2022-09-18T14:02:28.037Z,23
2022-09-18T14:03:28.000Z,23
2022-09-18T14:04:27.683Z,21
2022-09-18T14:05:21.348Z,22
2022-09-18T14:06:32.889Z,21
2022-09-18T14:07:28.420Z,21
2022-09-18T14:08:23.973Z,22
2022-09-18T14:09:30.610Z,22
2022-09-18T14:10:32.427Z,22
2022-09-18T14:11:24.356Z,23
2022-09-18T14:12:21.046Z,24
2022-09-18T14:13:32.856Z,24
2022-09-18T14:14:28.815Z,23
2022-09-18T14:15:22.792Z,23
2022-09-18T14:16:32.749Z,22
2022-09-18T14:17:30.881Z,22
2022-09-18T14:18:29.020Z,24
2022-09-18T14:19:21.762Z,24
2022-09-18T14:20:29.515Z,22
2022-09-18T14:21:29.788Z,23
2022-09-18T14:22:24.746Z,22
2022-09-18T14:23:32.023Z,20
2022-09-18T14:24:27.969Z,24
2022-09-18T14:25:32.336Z,25
2022-09-18T14:26:20.891Z,24
2022-09-18T14:27:31.160Z,24
2022-09-18T14:28:26.855Z,22
2022-09-18T14:29:25.862Z,24
2022-09-18T14:30:23.667Z,22
2022-09-18T14:31:25.912Z,25
2022-09-18T14:32:26.526Z,24
2022-09-18T14:33:22.632Z,21
2022-09-18T14:34:31.975Z,24
2022-09-18T14:35:26.211Z,22
2022-09-18T14:36:22.400Z,24
2022-09-18T14:37:29.133Z,23
2022-09-18T14:38:28.986Z,22
2022-09-18T14:39:26.769Z,22
2022-09-18T14:40:21.387Z,21
2022-09-18T14:41:25.531Z,22
2022-09-18T14:42:42.176Z,24
2022-09-18T14:43:23.874Z,24
2022-09-18T14:44:25.898Z,23
2022-09-18T14:45:29.844Z,23
2022-09-18T14:46:27.332Z,22
2022-09-18T14:47:20.596Z,23
2022-09-18T14:48:28.046Z,24
2022-09-18T14:49:27.611Z,23
2022-09-18T14:50:22.217Z,22
2022-09-18T14:51:49.365Z,24
2022-09-18T14:52:28.393Z,23
2022-09-18T14:53:24.373Z,23
2022-09-18T14:54:21.973Z,24
2022-09-18T14:55:24.096Z,23
2022-09-18T14:56:22.288Z,26
2022-09-18T14:57:22.283Z,25
2022-09-18T14:58:32.183Z,24
2022-09-18T14:59:21.113Z,23
2022-09-18T15:00:27.123Z,24
2022-09-18T15:01:23.987Z,24
2022-09-18T15:02:29.431Z,25
2022-09-18T15:03:26.893Z,24
2022-09-18T15:04:24.528Z,24
2022-09-18T15:05:28.662Z,25
2022-09-18T15:06:25.701Z,24
2022-09-18T15:07:27.868Z,24
2022-09-18T15:08:22.538Z,24
2022-09-18T15:09:36.157Z,24
2022-09-18T15:10:26.339Z,24
2022-09-18T15:11:23.521Z,24
2022-09-18T15:12:34.574Z,24
2022-09-18T15:13:25.456Z,25
2022-09-18T15:14:26.149Z,24
2022-09-18T15:15:23.166Z,25
2022-09-18T15:16:21.985Z,25
2022-09-18T15:17:21.712Z,25
2022-09-18T15:18:26.102Z,26
2022-09-18T15:19:22.998Z,26
2022-09-18T15:20:31.114Z,24
2022-09-18T15:21:25.154Z,24
2022-09-18T15:22:25.039Z,25
2022-09-18T15:23:26.647Z,26
2022-09-18T15:24:25.839Z,26
2022-09-18T15:25:26.886Z,25
2022-09-18T15:26:26.741Z,26
2022-09-18T15:27:34.908Z,26
2022-09-18T15:28:24.566Z,26
2022-09-18T15:29:20.363Z,25
2022-09-18T15:30:31.961Z,26
2022-09-18T15:31:22.747Z,26
2022-09-18T15:32:22.401Z,26
2022-09-18T15:33:23.679Z,26
2022-09-18T15:34:23.231Z,26
2022-09-18T15:35:21.015Z,27
2022-09-18T15:36:35.124Z,28
2022-09-18T15:37:33.393Z,26
2022-09-18T15:38:28.974Z,26
2022-09-18T15:39:23.660Z,26
2022-09-18T15:40:33.136Z,26
2022-09-18T15:41:25.831Z,26
2022-09-18T15:42:24.338Z,27
2022-09-18T15:43:20.255Z,27
2022-09-18T15:44:23.189Z,26
2022-09-18T15:45:26.190Z,27
2022-09-18T15:46:22.245Z,27
2022-09-18T15:47:33.792Z,27
2022-09-18T15:48:33.776Z,26
2022-09-18T15:49:26.860Z,26
2022-09-18T15:50:20.890Z,26
2022-09-18T15:51:30.464Z,27
2022-09-18T15:52:26.575Z,28
2022-09-18T15:53:22.090Z,28
2022-09-18T15:54:35.149Z,29
2022-09-18T15:55:30.451Z,29
2022-09-18T15:56:26.495Z,28
2022-09-18T15:57:23.163Z,29
2022-09-18T15:58:32.673Z,29
2022-09-18T15:59:28.829Z,29
2022-09-18T16:00:25.709Z,29
2022-09-18T16:01:24.732Z,29
2022-09-18T16:02:39.509Z,28
2022-09-18T16:03:27.671Z,29
2022-09-18T16:04:20.198Z,27
2022-09-18T16:05:48.746Z,29
2022-09-18T16:06:29.488Z,28
2022-09-18T16:07:22.093Z,28
2022-09-18T16:08:35.337Z,28
2022-09-18T16:09:33.568Z,29
2022-09-18T16:10:26.308Z,29
2022-09-18T16:11:23.180Z,30
2022-09-18T16:12:23.428Z,29
2022-09-18T16:13:29.486Z,30
2022-09-18T16:14:22.180Z,29
2022-09-18T16:15:32.611Z,30
2022-09-18T16:16:45.310Z,30
2022-09-18T16:17:40.995Z,30
2022-09-18T16:18:21.786Z,29
2022-09-18T16:19:31.202Z,29
2022-09-18T16:20:43.500Z,30
2022-09-18T16:21:36.271Z,29
2022-09-18T16:22:23.627Z,29
2022-09-18T16:23:28.298Z,30
2022-09-18T16:24:26.602Z,29
2022-09-18T16:25:22.679Z,30
2022-09-18T16:26:33.022Z,30
2022-09-18T16:27:25.216Z,30
2022-09-18T16:28:26.687Z,30
2022-09-18T16:29:23.938Z,30
2022-09-18T16:30:29.812Z,30
2022-09-18T16:31:24.526Z,30
2022-09-18T16:32:26.612Z,31
2022-09-18T16:33:33.839Z,30
2022-09-18T16:34:27.445Z,31
2022-09-18T16:35:27.614Z,31
2022-09-18T16:36:29.561Z,31
2022-09-18T16:37:29.336Z,31
2022-09-18T16:38:34.876Z,32
2022-09-18T16:39:39.685Z,31
2022-09-18T16:40:27.436Z,31
2022-09-18T16:41:26.279Z,31
2022-09-18T16:42:27.814Z,31
2022-09-18T16:43:32.076Z,32
2022-09-18T16:44:30.140Z,32
2022-09-18T16:45:24.298Z,31
2022-09-18T16:46:21.296Z,31
2022-09-18T16:47:29.245Z,32
2022-09-18T16:48:36.925Z,32
2022-09-18T16:49:25.354Z,32
2022-09-18T16:50:22.516Z,32
2022-09-18T16:51:25.194Z,31
2022-09-18T16:52:29.959Z,32
2022-09-18T16:53:21.632Z,33
2022-09-18T16:54:22.963Z,32
2022-09-18T16:55:31.345Z,32
2022-09-18T16:56:22.481Z,33
2022-09-18T16:57:23.556Z,33
2022-09-18T16:58:29.050Z,32
2022-09-18T16:59:58.258Z,33
2022-09-18T17:00:44.698Z,33
2022-09-18T17:01:48.522Z,33
2022-09-18T17:02:28.570Z,33
2022-09-18T17:03:24.670Z,33
2022-09-18T17:04:32.178Z,34
2022-09-18T17:05:28.950Z,33
2022-09-18T17:06:28.540Z,33
2022-09-18T17:07:20.897Z,33
2022-09-18T17:08:33.146Z,33
2022-09-18T17:09:29.155Z,34
2022-09-18T17:10:25.774Z,34
2022-09-18T17:11:38.735Z,34
2022-09-18T17:12:34.863Z,34
2022-09-18T17:13:30.787Z,34
2022-09-18T17:14:25.017Z,34
2022-09-18T17:15:32.433Z,34
2022-09-18T17:16:57.493Z,34
2022-09-18T17:17:27.638Z,35
2022-09-18T17:18:35.194Z,34
2022-09-18T17:19:34.417Z,35
2022-09-18T17:20:25.519Z,35
2022-09-18T17:21:25.701Z,35
2022-09-18T17:22:30.995Z,35
2022-09-18T17:23:34.513Z,35
2022-09-18T17:24:23.210Z,36
2022-09-18T17:25:40.402Z,36
2022-09-18T17:26:32.580Z,37
2022-09-18T17:27:25.861Z,38
2022-09-18T17:28:21.338Z,37
2022-09-18T17:29:44.806Z,37
2022-09-18T17:30:26.658Z,37
2022-09-18T17:31:29.570Z,37
2022-09-18T17:32:32.670Z,37
2022-09-18T17:33:28.509Z,37
2022-09-18T17:34:27.976Z,38
2022-09-18T17:35:27.224Z,37